sensor_id;sensor_type;location;lat;lon;timestamp;P1;durP1;ratioP1;P2;durP2;ratioP2
42036;SDS011;30340;52.004;5.908;2022-07-31T00:00:21;3.58;;;2.38;;
42036;SDS011;30340;52.004;5.908;2022-07-31T00:02:46;3.85;;;2.60;;
42036;SDS011;30340;52.004;5.908;2022-07-31T00:05:12;2.70;;;1.95;;
42036;SDS011;30340;52.004;5.908;2022-07-31T00:07:38;5.45;;;2.38;;
42036;SDS011;30340;52.004;5.908;2022-07-31T00:10:04;4.13;;;2.38;;
42036;SDS011;30340;52.004;5.908;2022-07-31T00:12:30;4.05;;;2.10;;
42036;SDS011;30340;52.004;5.908;2022-07-31T00:14:56;2.53;;;2.00;;
42036;SDS011;30340;52.004;5.908;2022-07-31T00:17:21;4.10;;;2.63;;
42036;SDS011;30340;52.004;5.908;2022-07-31T00:19:47;2.42;;;1.95;;
42036;SDS011;30340;52.004;5.908;2022-07-31T00:22:13;3.00;;;2.20;;
42036;SDS011;30340;52.004;5.908;2022-07-31T00:24:39;4.20;;;2.20;;
42036;SDS011;30340;52.004;5.908;2022-07-31T00:27:04;2.75;;;2.05;;
42036;SDS011;30340;52.004;5.908;2022-07-31T00:29:30;2.20;;;1.73;;
42036;SDS011;30340;52.004;5.908;2022-07-31T00:31:56;2.17;;;1.95;;
42036;SDS011;30340;52.004;5.908;2022-07-31T00:34:21;3.92;;;1.77;;
42036;SDS011;30340;52.004;5.908;2022-07-31T00:36:47;3.72;;;2.10;;
42036;SDS011;30340;52.004;5.908;2022-07-31T00:39:13;2.95;;;2.10;;
42036;SDS011;30340;52.004;5.908;2022-07-31T00:41:39;4.25;;;2.38;;
42036;SDS011;30340;52.004;5.908;2022-07-31T00:44:07;3.80;;;2.08;;
42036;SDS011;30340;52.004;5.908;2022-07-31T00:46:36;2.22;;;1.70;;
42036;SDS011;30340;52.004;5.908;2022-07-31T00:49:02;3.45;;;2.28;;
42036;SDS011;30340;52.004;5.908;2022-07-31T00:51:28;2.38;;;1.90;;
42036;SDS011;30340;52.004;5.908;2022-07-31T00:53:54;3.80;;;2.22;;
42036;SDS011;30340;52.004;5.908;2022-07-31T00:56:20;2.55;;;1.88;;
42036;SDS011;30340;52.004;5.908;2022-07-31T00:58:45;2.67;;;2.00;;
42036;SDS011;30340;52.004;5.908;2022-07-31T01:01:11;2.85;;;1.83;;
42036;SDS011;30340;52.004;5.908;2022-07-31T01:03:37;3.40;;;1.90;;
42036;SDS011;30340;52.004;5.908;2022-07-31T01:06:02;2.55;;;1.95;;
42036;SDS011;30340;52.004;5.908;2022-07-31T01:08:28;3.20;;;2.17;;
42036;SDS011;30340;52.004;5.908;2022-07-31T01:13:34;2.28;;;2.08;;
42036;SDS011;30340;52.004;5.908;2022-07-31T01:16:04;2.67;;;2.08;;
42036;SDS011;30340;52.004;5.908;2022-07-31T01:18:33;2.97;;;1.80;;
42036;SDS011;30340;52.004;5.908;2022-07-31T01:21:04;2.40;;;1.70;;
42036;SDS011;30340;52.004;5.908;2022-07-31T01:26:33;2.33;;;1.40;;
42036;SDS011;30340;52.004;5.908;2022-07-31T01:29:05;2.47;;;1.70;;
42036;SDS011;30340;52.004;5.908;2022-07-31T01:31:41;2.03;;;1.60;;
42036;SDS011;30340;52.004;5.908;2022-07-31T01:37:11;2.85;;;1.55;;
42036;SDS011;30340;52.004;5.908;2022-07-31T01:39:41;2.00;;;1.48;;
42036;SDS011;30340;52.004;5.908;2022-07-31T01:42:10;2.55;;;1.70;;
42036;SDS011;30340;52.004;5.908;2022-07-31T01:44:43;1.63;;;1.50;;
42036;SDS011;30340;52.004;5.908;2022-07-31T01:47:13;2.13;;;1.80;;
42036;SDS011;30340;52.004;5.908;2022-07-31T01:52:09;1.30;;;1.20;;
42036;SDS011;30340;52.004;5.908;2022-07-31T01:54:36;4.68;;;1.70;;
42036;SDS011;30340;52.004;5.908;2022-07-31T01:57:04;2.78;;;1.50;;
42036;SDS011;30340;52.004;5.908;2022-07-31T01:59:31;2.42;;;1.50;;
42036;SDS011;30340;52.004;5.908;2022-07-31T02:01:59;1.40;;;1.30;;
42036;SDS011;30340;52.004;5.908;2022-07-31T02:04:27;1.65;;;1.55;;
42036;SDS011;30340;52.004;5.908;2022-07-31T02:06:53;1.88;;;1.38;;
42036;SDS011;30340;52.004;5.908;2022-07-31T02:09:19;2.50;;;1.70;;
42036;SDS011;30340;52.004;5.908;2022-07-31T02:11:47;2.70;;;1.60;;
42036;SDS011;30340;52.004;5.908;2022-07-31T02:14:15;2.45;;;1.70;;
42036;SDS011;30340;52.004;5.908;2022-07-31T02:16:42;3.05;;;1.70;;
42036;SDS011;30340;52.004;5.908;2022-07-31T02:19:10;2.38;;;1.77;;
42036;SDS011;30340;52.004;5.908;2022-07-31T02:21:38;2.40;;;1.58;;
42036;SDS011;30340;52.004;5.908;2022-07-31T02:24:04;2.72;;;1.77;;
42036;SDS011;30340;52.004;5.908;2022-07-31T02:26:30;2.40;;;1.67;;
42036;SDS011;30340;52.004;5.908;2022-07-31T02:28:57;2.47;;;1.40;;
42036;SDS011;30340;52.004;5.908;2022-07-31T02:31:23;1.98;;;1.60;;
42036;SDS011;30340;52.004;5.908;2022-07-31T02:33:50;1.95;;;1.45;;
42036;SDS011;30340;52.004;5.908;2022-07-31T02:36:16;3.17;;;1.80;;
42036;SDS011;30340;52.004;5.908;2022-07-31T02:38:43;2.20;;;1.70;;
42036;SDS011;30340;52.004;5.908;2022-07-31T02:41:10;2.13;;;1.60;;
42036;SDS011;30340;52.004;5.908;2022-07-31T02:43:36;2.47;;;1.63;;
42036;SDS011;30340;52.004;5.908;2022-07-31T02:46:03;2.33;;;1.73;;
42036;SDS011;30340;52.004;5.908;2022-07-31T02:48:30;2.85;;;1.42;;
42036;SDS011;30340;52.004;5.908;2022-07-31T02:50:56;2.55;;;1.38;;
42036;SDS011;30340;52.004;5.908;2022-07-31T02:53:22;2.22;;;1.40;;
42036;SDS011;30340;52.004;5.908;2022-07-31T02:55:49;3.10;;;1.92;;
42036;SDS011;30340;52.004;5.908;2022-07-31T02:58:16;1.80;;;1.50;;
42036;SDS011;30340;52.004;5.908;2022-07-31T03:00:41;2.63;;;1.70;;
42036;SDS011;30340;52.004;5.908;2022-07-31T03:03:07;1.55;;;1.40;;
42036;SDS011;30340;52.004;5.908;2022-07-31T03:05:33;1.65;;;1.40;;
42036;SDS011;30340;52.004;5.908;2022-07-31T03:07:58;2.13;;;1.70;;
42036;SDS011;30340;52.004;5.908;2022-07-31T03:10:24;1.42;;;1.33;;
42036;SDS011;30340;52.004;5.908;2022-07-31T03:12:51;3.20;;;1.50;;
42036;SDS011;30340;52.004;5.908;2022-07-31T03:15:20;1.38;;;1.27;;
42036;SDS011;30340;52.004;5.908;2022-07-31T03:17:49;2.95;;;1.52;;
42036;SDS011;30340;52.004;5.908;2022-07-31T03:20:16;3.10;;;1.48;;
42036;SDS011;30340;52.004;5.908;2022-07-31T03:22:42;2.25;;;1.42;;
42036;SDS011;30340;52.004;5.908;2022-07-31T03:25:08;1.73;;;1.48;;
42036;SDS011;30340;52.004;5.908;2022-07-31T03:27:34;2.60;;;1.60;;
42036;SDS011;30340;52.004;5.908;2022-07-31T03:30:00;1.85;;;1.40;;
42036;SDS011;30340;52.004;5.908;2022-07-31T03:32:27;3.05;;;1.63;;
42036;SDS011;30340;52.004;5.908;2022-07-31T03:34:52;2.22;;;1.70;;
42036;SDS011;30340;52.004;5.908;2022-07-31T03:37:18;2.13;;;1.60;;
42036;SDS011;30340;52.004;5.908;2022-07-31T03:39:43;2.20;;;1.40;;
42036;SDS011;30340;52.004;5.908;2022-07-31T03:42:09;2.83;;;1.70;;
42036;SDS011;30340;52.004;5.908;2022-07-31T03:44:35;2.97;;;1.63;;
42036;SDS011;30340;52.004;5.908;2022-07-31T03:47:02;3.00;;;2.00;;
42036;SDS011;30340;52.004;5.908;2022-07-31T03:49:28;4.53;;;1.98;;
42036;SDS011;30340;52.004;5.908;2022-07-31T03:51:56;1.80;;;1.58;;
42036;SDS011;30340;52.004;5.908;2022-07-31T03:54:22;2.50;;;1.65;;
42036;SDS011;30340;52.004;5.908;2022-07-31T03:56:49;2.20;;;1.90;;
42036;SDS011;30340;52.004;5.908;2022-07-31T03:59:16;3.67;;;2.28;;
42036;SDS011;30340;52.004;5.908;2022-07-31T04:01:42;3.15;;;2.00;;
42036;SDS011;30340;52.004;5.908;2022-07-31T04:04:09;2.60;;;2.00;;
42036;SDS011;30340;52.004;5.908;2022-07-31T04:06:35;2.42;;;1.85;;
42036;SDS011;30340;52.004;5.908;2022-07-31T04:09:00;3.35;;;2.65;;
42036;SDS011;30340;52.004;5.908;2022-07-31T04:11:26;3.95;;;2.33;;
42036;SDS011;30340;52.004;5.908;2022-07-31T04:13:52;4.20;;;2.20;;
42036;SDS011;30340;52.004;5.908;2022-07-31T04:16:18;5.20;;;2.90;;
42036;SDS011;30340;52.004;5.908;2022-07-31T04:18:43;3.53;;;2.50;;
42036;SDS011;30340;52.004;5.908;2022-07-31T04:21:09;3.90;;;2.50;;
42036;SDS011;30340;52.004;5.908;2022-07-31T04:23:35;3.22;;;2.45;;
42036;SDS011;30340;52.004;5.908;2022-07-31T04:26:00;4.25;;;2.20;;
42036;SDS011;30340;52.004;5.908;2022-07-31T04:28:26;3.83;;;2.47;;
42036;SDS011;30340;52.004;5.908;2022-07-31T04:30:52;2.97;;;2.40;;
42036;SDS011;30340;52.004;5.908;2022-07-31T04:33:17;2.90;;;2.38;;
42036;SDS011;30340;52.004;5.908;2022-07-31T04:35:43;2.72;;;2.10;;
42036;SDS011;30340;52.004;5.908;2022-07-31T04:38:08;2.67;;;1.80;;
42036;SDS011;30340;52.004;5.908;2022-07-31T04:40:35;4.85;;;2.65;;
42036;SDS011;30340;52.004;5.908;2022-07-31T04:43:01;3.88;;;2.38;;
42036;SDS011;30340;52.004;5.908;2022-07-31T04:45:27;4.07;;;2.30;;
42036;SDS011;30340;52.004;5.908;2022-07-31T04:47:53;3.63;;;2.40;;
42036;SDS011;30340;52.004;5.908;2022-07-31T04:50:18;4.43;;;2.60;;
42036;SDS011;30340;52.004;5.908;2022-07-31T04:52:44;3.38;;;2.03;;
42036;SDS011;30340;52.004;5.908;2022-07-31T04:55:09;4.03;;;2.55;;
42036;SDS011;30340;52.004;5.908;2022-07-31T04:57:35;3.05;;;2.00;;
42036;SDS011;30340;52.004;5.908;2022-07-31T05:00:00;3.25;;;2.15;;
42036;SDS011;30340;52.004;5.908;2022-07-31T05:02:26;2.67;;;2.33;;
42036;SDS011;30340;52.004;5.908;2022-07-31T05:04:51;4.38;;;2.00;;
42036;SDS011;30340;52.004;5.908;2022-07-31T05:07:17;4.38;;;2.60;;
42036;SDS011;30340;52.004;5.908;2022-07-31T05:09:43;4.10;;;2.92;;
42036;SDS011;30340;52.004;5.908;2022-07-31T05:12:08;4.40;;;2.67;;
42036;SDS011;30340;52.004;5.908;2022-07-31T05:14:34;5.03;;;2.83;;
42036;SDS011;30340;52.004;5.908;2022-07-31T05:16:59;5.13;;;2.80;;
42036;SDS011;30340;52.004;5.908;2022-07-31T05:19:25;5.07;;;2.90;;
42036;SDS011;30340;52.004;5.908;2022-07-31T05:21:54;5.22;;;3.58;;
42036;SDS011;30340;52.004;5.908;2022-07-31T05:24:21;4.10;;;3.10;;
42036;SDS011;30340;52.004;5.908;2022-07-31T05:26:47;4.63;;;3.65;;
42036;SDS011;30340;52.004;5.908;2022-07-31T05:29:12;5.28;;;3.63;;
42036;SDS011;30340;52.004;5.908;2022-07-31T05:31:38;4.72;;;3.20;;
42036;SDS011;30340;52.004;5.908;2022-07-31T05:34:03;4.15;;;2.97;;
42036;SDS011;30340;52.004;5.908;2022-07-31T05:36:29;4.18;;;3.13;;
42036;SDS011;30340;52.004;5.908;2022-07-31T05:38:54;4.45;;;3.05;;
42036;SDS011;30340;52.004;5.908;2022-07-31T05:41:20;4.88;;;3.85;;
42036;SDS011;30340;52.004;5.908;2022-07-31T05:43:46;4.07;;;3.42;;
42036;SDS011;30340;52.004;5.908;2022-07-31T05:46:11;3.55;;;2.80;;
42036;SDS011;30340;52.004;5.908;2022-07-31T05:48:41;5.88;;;3.75;;
42036;SDS011;30340;52.004;5.908;2022-07-31T05:51:11;4.80;;;3.58;;
42036;SDS011;30340;52.004;5.908;2022-07-31T05:53:38;4.05;;;3.20;;
42036;SDS011;30340;52.004;5.908;2022-07-31T05:56:04;5.68;;;3.97;;
42036;SDS011;30340;52.004;5.908;2022-07-31T05:58:30;5.78;;;3.90;;
42036;SDS011;30340;52.004;5.908;2022-07-31T06:00:56;5.68;;;4.10;;
42036;SDS011;30340;52.004;5.908;2022-07-31T06:03:22;8.52;;;4.25;;
42036;SDS011;30340;52.004;5.908;2022-07-31T06:05:49;5.95;;;3.83;;
42036;SDS011;30340;52.004;5.908;2022-07-31T06:08:15;5.45;;;3.75;;
42036;SDS011;30340;52.004;5.908;2022-07-31T06:10:42;5.72;;;4.53;;
42036;SDS011;30340;52.004;5.908;2022-07-31T06:13:07;5.28;;;4.10;;
42036;SDS011;30340;52.004;5.908;2022-07-31T06:15:33;7.47;;;4.55;;
42036;SDS011;30340;52.004;5.908;2022-07-31T06:17:59;4.53;;;3.28;;
42036;SDS011;30340;52.004;5.908;2022-07-31T06:20:24;7.00;;;4.72;;
42036;SDS011;30340;52.004;5.908;2022-07-31T06:22:50;7.38;;;5.32;;
42036;SDS011;30340;52.004;5.908;2022-07-31T06:25:16;7.10;;;5.78;;
42036;SDS011;30340;52.004;5.908;2022-07-31T06:27:42;5.90;;;4.95;;
42036;SDS011;30340;52.004;5.908;2022-07-31T06:30:07;6.10;;;4.25;;
42036;SDS011;30340;52.004;5.908;2022-07-31T06:32:34;5.13;;;3.85;;
42036;SDS011;30340;52.004;5.908;2022-07-31T06:35:00;6.75;;;5.15;;
42036;SDS011;30340;52.004;5.908;2022-07-31T06:37:25;5.85;;;4.45;;
42036;SDS011;30340;52.004;5.908;2022-07-31T06:39:52;6.95;;;5.90;;
42036;SDS011;30340;52.004;5.908;2022-07-31T06:42:21;10.00;;;6.95;;
42036;SDS011;30340;52.004;5.908;2022-07-31T06:44:48;7.93;;;6.30;;
42036;SDS011;30340;52.004;5.908;2022-07-31T06:47:14;8.18;;;6.28;;
42036;SDS011;30340;52.004;5.908;2022-07-31T06:49:40;9.10;;;7.75;;
42036;SDS011;30340;52.004;5.908;2022-07-31T06:52:05;7.35;;;5.47;;
42036;SDS011;30340;52.004;5.908;2022-07-31T06:54:31;6.63;;;5.70;;
42036;SDS011;30340;52.004;5.908;2022-07-31T06:56:57;6.95;;;5.85;;
42036;SDS011;30340;52.004;5.908;2022-07-31T06:59:22;8.38;;;6.72;;
42036;SDS011;30340;52.004;5.908;2022-07-31T07:01:48;7.50;;;6.30;;
42036;SDS011;30340;52.004;5.908;2022-07-31T07:04:14;9.27;;;5.97;;
42036;SDS011;30340;52.004;5.908;2022-07-31T07:06:39;9.15;;;6.30;;
42036;SDS011;30340;52.004;5.908;2022-07-31T07:09:05;10.73;;;8.15;;
42036;SDS011;30340;52.004;5.908;2022-07-31T07:11:30;8.07;;;7.10;;
42036;SDS011;30340;52.004;5.908;2022-07-31T07:13:56;9.05;;;7.05;;
42036;SDS011;30340;52.004;5.908;2022-07-31T07:16:21;9.82;;;6.90;;
42036;SDS011;30340;52.004;5.908;2022-07-31T07:18:47;10.30;;;8.48;;
42036;SDS011;30340;52.004;5.908;2022-07-31T07:21:12;8.00;;;6.20;;
42036;SDS011;30340;52.004;5.908;2022-07-31T07:23:38;8.32;;;6.78;;
42036;SDS011;30340;52.004;5.908;2022-07-31T07:26:04;8.13;;;6.53;;
42036;SDS011;30340;52.004;5.908;2022-07-31T07:28:30;9.80;;;7.35;;
42036;SDS011;30340;52.004;5.908;2022-07-31T07:30:55;9.45;;;8.02;;
42036;SDS011;30340;52.004;5.908;2022-07-31T07:33:21;8.05;;;5.57;;
42036;SDS011;30340;52.004;5.908;2022-07-31T07:35:47;8.48;;;7.55;;
42036;SDS011;30340;52.004;5.908;2022-07-31T07:38:12;8.95;;;7.18;;
42036;SDS011;30340;52.004;5.908;2022-07-31T07:40:38;7.18;;;6.10;;
42036;SDS011;30340;52.004;5.908;2022-07-31T07:43:04;6.68;;;4.95;;
42036;SDS011;30340;52.004;5.908;2022-07-31T07:45:29;7.75;;;6.18;;
42036;SDS011;30340;52.004;5.908;2022-07-31T07:47:55;9.13;;;8.00;;
42036;SDS011;30340;52.004;5.908;2022-07-31T07:50:21;14.20;;;10.77;;
42036;SDS011;30340;52.004;5.908;2022-07-31T07:52:47;9.75;;;7.28;;
42036;SDS011;30340;52.004;5.908;2022-07-31T07:55:13;9.45;;;6.82;;
42036;SDS011;30340;52.004;5.908;2022-07-31T07:57:42;8.65;;;5.95;;
42036;SDS011;30340;52.004;5.908;2022-07-31T08:00:09;6.43;;;5.22;;
42036;SDS011;30340;52.004;5.908;2022-07-31T08:02:36;5.80;;;5.10;;
42036;SDS011;30340;52.004;5.908;2022-07-31T08:05:02;6.53;;;4.93;;
42036;SDS011;30340;52.004;5.908;2022-07-31T08:07:29;7.50;;;5.60;;
42036;SDS011;30340;52.004;5.908;2022-07-31T08:09:56;6.93;;;5.03;;
42036;SDS011;30340;52.004;5.908;2022-07-31T08:12:23;8.70;;;7.60;;
42036;SDS011;30340;52.004;5.908;2022-07-31T08:14:49;7.05;;;5.82;;
42036;SDS011;30340;52.004;5.908;2022-07-31T08:17:15;7.18;;;5.25;;
42036;SDS011;30340;52.004;5.908;2022-07-31T08:19:41;7.88;;;5.60;;
42036;SDS011;30340;52.004;5.908;2022-07-31T08:22:06;8.30;;;5.82;;
42036;SDS011;30340;52.004;5.908;2022-07-31T08:24:32;6.63;;;4.75;;
42036;SDS011;30340;52.004;5.908;2022-07-31T08:26:58;7.15;;;5.10;;
42036;SDS011;30340;52.004;5.908;2022-07-31T08:29:43;7.40;;;5.57;;
42036;SDS011;30340;52.004;5.908;2022-07-31T08:32:09;8.77;;;6.40;;
42036;SDS011;30340;52.004;5.908;2022-07-31T08:34:35;9.30;;;7.75;;
42036;SDS011;30340;52.004;5.908;2022-07-31T08:37:01;7.38;;;5.63;;
42036;SDS011;30340;52.004;5.908;2022-07-31T08:39:28;6.47;;;4.40;;
42036;SDS011;30340;52.004;5.908;2022-07-31T08:41:53;9.50;;;6.80;;
42036;SDS011;30340;52.004;5.908;2022-07-31T08:44:19;11.32;;;7.82;;
42036;SDS011;30340;52.004;5.908;2022-07-31T08:46:45;9.18;;;7.00;;
42036;SDS011;30340;52.004;5.908;2022-07-31T08:49:11;7.22;;;5.78;;
42036;SDS011;30340;52.004;5.908;2022-07-31T08:51:40;7.95;;;5.75;;
42036;SDS011;30340;52.004;5.908;2022-07-31T08:54:08;7.20;;;5.50;;
42036;SDS011;30340;52.004;5.908;2022-07-31T08:56:35;5.32;;;4.53;;
42036;SDS011;30340;52.004;5.908;2022-07-31T08:59:02;6.50;;;4.55;;
42036;SDS011;30340;52.004;5.908;2022-07-31T09:01:28;6.15;;;4.50;;
42036;SDS011;30340;52.004;5.908;2022-07-31T09:03:57;7.88;;;5.82;;
42036;SDS011;30340;52.004;5.908;2022-07-31T09:06:23;6.40;;;4.75;;
42036;SDS011;30340;52.004;5.908;2022-07-31T09:08:49;7.57;;;4.93;;
42036;SDS011;30340;52.004;5.908;2022-07-31T09:11:15;8.50;;;7.13;;
42036;SDS011;30340;52.004;5.908;2022-07-31T09:14:02;6.88;;;5.20;;
42036;SDS011;30340;52.004;5.908;2022-07-31T09:16:28;6.55;;;5.38;;
42036;SDS011;30340;52.004;5.908;2022-07-31T09:18:58;5.82;;;4.85;;
42036;SDS011;30340;52.004;5.908;2022-07-31T09:21:25;5.95;;;4.70;;
42036;SDS011;30340;52.004;5.908;2022-07-31T09:24:02;8.70;;;5.90;;
42036;SDS011;30340;52.004;5.908;2022-07-31T09:26:31;6.63;;;5.43;;
42036;SDS011;30340;52.004;5.908;2022-07-31T09:28:58;5.20;;;4.05;;
42036;SDS011;30340;52.004;5.908;2022-07-31T09:31:30;6.03;;;4.72;;
42036;SDS011;30340;52.004;5.908;2022-07-31T09:33:56;4.35;;;3.65;;
42036;SDS011;30340;52.004;5.908;2022-07-31T09:36:22;5.68;;;4.38;;
42036;SDS011;30340;52.004;5.908;2022-07-31T09:38:48;6.85;;;4.10;;
42036;SDS011;30340;52.004;5.908;2022-07-31T09:41:15;7.00;;;5.40;;
42036;SDS011;30340;52.004;5.908;2022-07-31T09:43:54;6.05;;;4.68;;
42036;SDS011;30340;52.004;5.908;2022-07-31T09:46:24;8.35;;;5.95;;
42036;SDS011;30340;52.004;5.908;2022-07-31T09:48:53;6.90;;;4.85;;
42036;SDS011;30340;52.004;5.908;2022-07-31T09:51:22;6.03;;;4.20;;
42036;SDS011;30340;52.004;5.908;2022-07-31T09:53:49;6.15;;;5.07;;
42036;SDS011;30340;52.004;5.908;2022-07-31T09:56:33;8.13;;;5.68;;
42036;SDS011;30340;52.004;5.908;2022-07-31T09:58:59;8.07;;;6.30;;
42036;SDS011;30340;52.004;5.908;2022-07-31T10:01:25;9.93;;;6.55;;
42036;SDS011;30340;52.004;5.908;2022-07-31T10:03:52;5.65;;;4.55;;
42036;SDS011;30340;52.004;5.908;2022-07-31T10:06:19;6.80;;;5.22;;
42036;SDS011;30340;52.004;5.908;2022-07-31T10:08:46;8.73;;;6.72;;
42036;SDS011;30340;52.004;5.908;2022-07-31T10:11:13;7.85;;;6.20;;
42036;SDS011;30340;52.004;5.908;2022-07-31T10:13:43;7.80;;;5.93;;
42036;SDS011;30340;52.004;5.908;2022-07-31T10:16:12;7.10;;;5.30;;
42036;SDS011;30340;52.004;5.908;2022-07-31T10:18:40;6.50;;;5.10;;
42036;SDS011;30340;52.004;5.908;2022-07-31T10:21:10;7.50;;;5.78;;
42036;SDS011;30340;52.004;5.908;2022-07-31T10:23:38;9.20;;;6.45;;
42036;SDS011;30340;52.004;5.908;2022-07-31T10:26:05;7.95;;;6.57;;
42036;SDS011;30340;52.004;5.908;2022-07-31T10:28:30;8.43;;;6.18;;
42036;SDS011;30340;52.004;5.908;2022-07-31T10:30:57;10.30;;;8.30;;
42036;SDS011;30340;52.004;5.908;2022-07-31T10:33:22;10.75;;;6.57;;
42036;SDS011;30340;52.004;5.908;2022-07-31T10:44:26;9.45;;;7.28;;
42036;SDS011;30340;52.004;5.908;2022-07-31T10:46:57;11.68;;;8.70;;
42036;SDS011;30340;52.004;5.908;2022-07-31T10:49:42;10.13;;;8.13;;
42036;SDS011;30340;52.004;5.908;2022-07-31T10:52:12;11.90;;;9.18;;
42036;SDS011;30340;52.004;5.908;2022-07-31T10:57:19;9.38;;;7.70;;
42036;SDS011;30340;52.004;5.908;2022-07-31T10:59:49;12.48;;;10.20;;
42036;SDS011;30340;52.004;5.908;2022-07-31T11:02:25;10.50;;;8.32;;
42036;SDS011;30340;52.004;5.908;2022-07-31T11:05:17;8.85;;;7.43;;
42036;SDS011;30340;52.004;5.908;2022-07-31T11:07:59;16.58;;;14.05;;
42036;SDS011;30340;52.004;5.908;2022-07-31T11:10:25;9.15;;;8.20;;
42036;SDS011;30340;52.004;5.908;2022-07-31T11:12:58;9.23;;;8.20;;
42036;SDS011;30340;52.004;5.908;2022-07-31T11:15:31;9.00;;;8.10;;
42036;SDS011;30340;52.004;5.908;2022-07-31T11:17:57;12.75;;;11.30;;
42036;SDS011;30340;52.004;5.908;2022-07-31T11:20:27;11.07;;;8.85;;
42036;SDS011;30340;52.004;5.908;2022-07-31T11:23:01;10.88;;;9.52;;
42036;SDS011;30340;52.004;5.908;2022-07-31T11:25:29;10.23;;;9.23;;
42036;SDS011;30340;52.004;5.908;2022-07-31T11:27:57;10.93;;;9.52;;
42036;SDS011;30340;52.004;5.908;2022-07-31T11:30:33;12.68;;;10.40;;
42036;SDS011;30340;52.004;5.908;2022-07-31T11:33:10;10.77;;;9.63;;
42036;SDS011;30340;52.004;5.908;2022-07-31T11:35:36;9.18;;;8.27;;
42036;SDS011;30340;52.004;5.908;2022-07-31T11:38:03;8.80;;;7.90;;
42036;SDS011;30340;52.004;5.908;2022-07-31T11:40:29;13.10;;;11.38;;
42036;SDS011;30340;52.004;5.908;2022-07-31T11:42:54;10.00;;;8.95;;
42036;SDS011;30340;52.004;5.908;2022-07-31T11:45:21;13.50;;;12.10;;
42036;SDS011;30340;52.004;5.908;2022-07-31T11:47:47;8.07;;;7.28;;
42036;SDS011;30340;52.004;5.908;2022-07-31T11:50:13;12.07;;;10.80;;
42036;SDS011;30340;52.004;5.908;2022-07-31T11:52:39;14.88;;;13.40;;
42036;SDS011;30340;52.004;5.908;2022-07-31T11:55:10;10.90;;;9.80;;
42036;SDS011;30340;52.004;5.908;2022-07-31T11:57:40;10.70;;;9.60;;
42036;SDS011;30340;52.004;5.908;2022-07-31T12:00:07;12.95;;;11.65;;
42036;SDS011;30340;52.004;5.908;2022-07-31T12:02:32;9.80;;;8.88;;
42036;SDS011;30340;52.004;5.908;2022-07-31T12:05:01;10.65;;;9.65;;
42036;SDS011;30340;52.004;5.908;2022-07-31T12:07:30;10.75;;;9.63;;
42036;SDS011;30340;52.004;5.908;2022-07-31T12:09:56;10.93;;;9.82;;
42036;SDS011;30340;52.004;5.908;2022-07-31T12:12:23;11.70;;;10.52;;
42036;SDS011;30340;52.004;5.908;2022-07-31T12:14:48;10.90;;;9.55;;
42036;SDS011;30340;52.004;5.908;2022-07-31T12:17:20;8.68;;;7.80;;
42036;SDS011;30340;52.004;5.908;2022-07-31T12:19:46;9.25;;;8.35;;
42036;SDS011;30340;52.004;5.908;2022-07-31T12:22:17;10.13;;;8.60;;
42036;SDS011;30340;52.004;5.908;2022-07-31T12:24:46;8.63;;;7.82;;
42036;SDS011;30340;52.004;5.908;2022-07-31T12:27:25;9.50;;;8.60;;
42036;SDS011;30340;52.004;5.908;2022-07-31T12:29:51;8.25;;;7.45;;
42036;SDS011;30340;52.004;5.908;2022-07-31T12:32:24;10.15;;;9.13;;
42036;SDS011;30340;52.004;5.908;2022-07-31T12:34:59;8.10;;;7.32;;
42036;SDS011;30340;52.004;5.908;2022-07-31T12:37:26;8.48;;;7.30;;
42036;SDS011;30340;52.004;5.908;2022-07-31T12:39:52;7.68;;;6.22;;
42036;SDS011;30340;52.004;5.908;2022-07-31T12:49:50;7.80;;;7.10;;
42036;SDS011;30340;52.004;5.908;2022-07-31T12:52:16;7.32;;;5.45;;
42036;SDS011;30340;52.004;5.908;2022-07-31T12:54:42;6.50;;;5.50;;
42036;SDS011;30340;52.004;5.908;2022-07-31T12:57:08;6.57;;;5.47;;
42036;SDS011;30340;52.004;5.908;2022-07-31T12:59:34;6.25;;;5.65;;
42036;SDS011;30340;52.004;5.908;2022-07-31T13:02:01;4.43;;;4.03;;
42036;SDS011;30340;52.004;5.908;2022-07-31T13:04:27;5.07;;;4.30;;
42036;SDS011;30340;52.004;5.908;2022-07-31T13:06:52;5.63;;;4.70;;
42036;SDS011;30340;52.004;5.908;2022-07-31T13:09:18;4.75;;;4.28;;
42036;SDS011;30340;52.004;5.908;2022-07-31T13:11:44;5.53;;;5.03;;
42036;SDS011;30340;52.004;5.908;2022-07-31T13:14:10;4.35;;;3.90;;
42036;SDS011;30340;52.004;5.908;2022-07-31T13:16:36;3.85;;;3.10;;
42036;SDS011;30340;52.004;5.908;2022-07-31T13:19:01;4.82;;;3.47;;
42036;SDS011;30340;52.004;5.908;2022-07-31T13:21:29;4.53;;;3.15;;
42036;SDS011;30340;52.004;5.908;2022-07-31T13:23:55;4.68;;;3.10;;
42036;SDS011;30340;52.004;5.908;2022-07-31T13:26:22;4.38;;;3.30;;
42036;SDS011;30340;52.004;5.908;2022-07-31T13:28:47;4.75;;;3.40;;
42036;SDS011;30340;52.004;5.908;2022-07-31T13:31:13;4.90;;;3.50;;
42036;SDS011;30340;52.004;5.908;2022-07-31T13:33:38;4.47;;;3.65;;
42036;SDS011;30340;52.004;5.908;2022-07-31T13:36:04;4.32;;;3.50;;
42036;SDS011;30340;52.004;5.908;2022-07-31T13:38:30;4.22;;;3.30;;
42036;SDS011;30340;52.004;5.908;2022-07-31T13:40:56;5.03;;;3.63;;
42036;SDS011;30340;52.004;5.908;2022-07-31T13:43:40;5.45;;;4.07;;
42036;SDS011;30340;52.004;5.908;2022-07-31T13:46:06;4.40;;;3.25;;
42036;SDS011;30340;52.004;5.908;2022-07-31T13:48:31;5.00;;;3.45;;
42036;SDS011;30340;52.004;5.908;2022-07-31T13:50:58;4.70;;;3.72;;
42036;SDS011;30340;52.004;5.908;2022-07-31T13:53:28;4.53;;;3.90;;
42036;SDS011;30340;52.004;5.908;2022-07-31T13:55:53;5.90;;;4.07;;
42036;SDS011;30340;52.004;5.908;2022-07-31T13:58:19;5.47;;;3.60;;
42036;SDS011;30340;52.004;5.908;2022-07-31T14:00:45;4.07;;;3.42;;
42036;SDS011;30340;52.004;5.908;2022-07-31T14:03:11;5.35;;;3.92;;
42036;SDS011;30340;52.004;5.908;2022-07-31T14:05:37;5.85;;;3.85;;
42036;SDS011;30340;52.004;5.908;2022-07-31T14:08:05;3.35;;;2.67;;
42036;SDS011;30340;52.004;5.908;2022-07-31T14:10:31;4.43;;;3.65;;
42036;SDS011;30340;52.004;5.908;2022-07-31T14:12:57;5.40;;;3.88;;
42036;SDS011;30340;52.004;5.908;2022-07-31T14:15:25;3.70;;;3.30;;
42036;SDS011;30340;52.004;5.908;2022-07-31T14:17:50;4.70;;;3.40;;
42036;SDS011;30340;52.004;5.908;2022-07-31T14:20:16;4.03;;;3.30;;
42036;SDS011;30340;52.004;5.908;2022-07-31T14:22:41;4.75;;;3.40;;
42036;SDS011;30340;52.004;5.908;2022-07-31T14:25:10;4.53;;;2.88;;
42036;SDS011;30340;52.004;5.908;2022-07-31T14:27:36;4.47;;;2.90;;
42036;SDS011;30340;52.004;5.908;2022-07-31T14:30:06;3.95;;;2.95;;
42036;SDS011;30340;52.004;5.908;2022-07-31T14:32:32;5.32;;;2.97;;
42036;SDS011;30340;52.004;5.908;2022-07-31T14:34:58;5.68;;;2.70;;
42036;SDS011;30340;52.004;5.908;2022-07-31T14:37:23;3.95;;;2.40;;
42036;SDS011;30340;52.004;5.908;2022-07-31T14:39:49;4.85;;;2.83;;
42036;SDS011;30340;52.004;5.908;2022-07-31T14:42:15;3.67;;;2.58;;
42036;SDS011;30340;52.004;5.908;2022-07-31T14:44:40;3.65;;;2.63;;
42036;SDS011;30340;52.004;5.908;2022-07-31T14:47:07;6.78;;;2.92;;
42036;SDS011;30340;52.004;5.908;2022-07-31T14:49:33;6.30;;;3.47;;
42036;SDS011;30340;52.004;5.908;2022-07-31T14:51:59;4.72;;;2.45;;
42036;SDS011;30340;52.004;5.908;2022-07-31T14:54:24;5.13;;;2.72;;
42036;SDS011;30340;52.004;5.908;2022-07-31T14:56:52;3.92;;;2.40;;
42036;SDS011;30340;52.004;5.908;2022-07-31T14:59:18;3.78;;;2.78;;
42036;SDS011;30340;52.004;5.908;2022-07-31T15:01:43;4.32;;;3.15;;
42036;SDS011;30340;52.004;5.908;2022-07-31T15:04:09;5.20;;;3.00;;
42036;SDS011;30340;52.004;5.908;2022-07-31T15:06:35;4.03;;;3.10;;
42036;SDS011;30340;52.004;5.908;2022-07-31T15:09:00;3.90;;;3.20;;
42036;SDS011;30340;52.004;5.908;2022-07-31T15:11:26;2.85;;;2.47;;
42036;SDS011;30340;52.004;5.908;2022-07-31T15:13:51;3.42;;;2.72;;